sensor_id;sensor_type;location;lat;lon;timestamp;P1;durP1;ratioP1;P2;durP2;ratioP2
21138;SDS011;10727;43.600;1.444;2023-03-01T00:01:00;11.52;;;8.65;;
21138;SDS011;10727;43.600;1.444;2023-03-01T00:04:06;12.40;;;8.65;;
21138;SDS011;10727;43.600;1.444;2023-03-01T00:07:12;13.25;;;9.73;;
21138;SDS011;10727;43.600;1.444;2023-03-01T00:10:18;13.15;;;8.57;;
21138;SDS011;10727;43.600;1.444;2023-03-01T00:13:24;13.88;;;9.60;;
21138;SDS011;10727;43.600;1.444;2023-03-01T00:16:29;12.65;;;9.60;;
21138;SDS011;10727;43.600;1.444;2023-03-01T00:19:36;13.60;;;9.75;;
21138;SDS011;10727;43.600;1.444;2023-03-01T00:22:41;16.08;;;10.57;;
21138;SDS011;10727;43.600;1.444;2023-03-01T00:25:48;14.13;;;10.48;;
21138;SDS011;10727;43.600;1.444;2023-03-01T00:28:54;13.85;;;10.93;;
21138;SDS011;10727;43.600;1.444;2023-03-01T00:32:00;14.73;;;10.35;;
21138;SDS011;10727;43.600;1.444;2023-03-01T00:35:05;14.05;;;10.27;;
21138;SDS011;10727;43.600;1.444;2023-03-01T00:38:10;13.23;;;9.73;;
21138;SDS011;10727;43.600;1.444;2023-03-01T00:41:18;15.13;;;9.63;;
21138;SDS011;10727;43.600;1.444;2023-03-01T00:44:25;11.27;;;8.63;;
21138;SDS011;10727;43.600;1.444;2023-03-01T00:47:31;11.95;;;8.95;;
21138;SDS011;10727;43.600;1.444;2023-03-01T00:50:36;14.13;;;9.20;;
21138;SDS011;10727;43.600;1.444;2023-03-01T00:53:41;11.98;;;8.52;;
21138;SDS011;10727;43.600;1.444;2023-03-01T00:56:47;13.95;;;8.68;;
21138;SDS011;10727;43.600;1.444;2023-03-01T00:59:52;11.55;;;8.50;;
21138;SDS011;10727;43.600;1.444;2023-03-01T01:02:58;11.65;;;8.52;;
21138;SDS011;10727;43.600;1.444;2023-03-01T01:06:03;11.75;;;8.18;;
21138;SDS011;10727;43.600;1.444;2023-03-01T01:09:12;12.50;;;7.70;;
21138;SDS011;10727;43.600;1.444;2023-03-01T01:12:22;11.82;;;7.60;;
21138;SDS011;10727;43.600;1.444;2023-03-01T01:15:27;10.18;;;7.25;;
21138;SDS011;10727;43.600;1.444;2023-03-01T01:18:32;11.98;;;8.02;;
21138;SDS011;10727;43.600;1.444;2023-03-01T01:21:37;11.35;;;6.68;;
21138;SDS011;10727;43.600;1.444;2023-03-01T01:24:42;9.85;;;7.22;;
21138;SDS011;10727;43.600;1.444;2023-03-01T01:27:49;11.43;;;7.28;;
21138;SDS011;10727;43.600;1.444;2023-03-01T01:30:54;8.55;;;6.95;;
21138;SDS011;10727;43.600;1.444;2023-03-01T01:33:59;8.93;;;6.82;;
21138;SDS011;10727;43.600;1.444;2023-03-01T01:37:04;8.55;;;6.70;;
21138;SDS011;10727;43.600;1.444;2023-03-01T01:40:11;10.10;;;7.10;;
21138;SDS011;10727;43.600;1.444;2023-03-01T01:43:22;10.45;;;6.65;;
21138;SDS011;10727;43.600;1.444;2023-03-01T01:46:28;8.38;;;6.78;;
21138;SDS011;10727;43.600;1.444;2023-03-01T01:49:35;9.00;;;6.63;;
21138;SDS011;10727;43.600;1.444;2023-03-01T01:52:41;9.13;;;6.60;;
21138;SDS011;10727;43.600;1.444;2023-03-01T01:55:48;8.50;;;6.50;;
21138;SDS011;10727;43.600;1.444;2023-03-01T01:58:55;9.40;;;6.88;;
21138;SDS011;10727;43.600;1.444;2023-03-01T02:02:01;10.85;;;6.68;;
21138;SDS011;10727;43.600;1.444;2023-03-01T02:05:09;8.02;;;6.53;;
21138;SDS011;10727;43.600;1.444;2023-03-01T02:08:16;10.30;;;7.00;;
21138;SDS011;10727;43.600;1.444;2023-03-01T02:11:21;9.68;;;6.55;;
21138;SDS011;10727;43.600;1.444;2023-03-01T02:14:28;8.18;;;6.50;;
21138;SDS011;10727;43.600;1.444;2023-03-01T02:17:34;11.23;;;6.50;;
21138;SDS011;10727;43.600;1.444;2023-03-01T02:20:42;11.02;;;6.85;;
21138;SDS011;10727;43.600;1.444;2023-03-01T02:23:48;9.32;;;6.60;;
21138;SDS011;10727;43.600;1.444;2023-03-01T02:26:55;7.38;;;6.30;;
21138;SDS011;10727;43.600;1.444;2023-03-01T02:30:02;9.05;;;6.20;;
21138;SDS011;10727;43.600;1.444;2023-03-01T02:33:07;8.15;;;6.68;;
21138;SDS011;10727;43.600;1.444;2023-03-01T02:36:14;10.23;;;6.82;;
21138;SDS011;10727;43.600;1.444;2023-03-01T02:39:20;10.35;;;7.38;;
21138;SDS011;10727;43.600;1.444;2023-03-01T02:42:29;11.05;;;7.70;;
21138;SDS011;10727;43.600;1.444;2023-03-01T02:45:38;10.50;;;7.88;;
21138;SDS011;10727;43.600;1.444;2023-03-01T02:48:48;12.27;;;9.02;;
21138;SDS011;10727;43.600;1.444;2023-03-01T02:55:17;11.60;;;8.80;;
21138;SDS011;10727;43.600;1.444;2023-03-01T02:58:22;13.73;;;8.80;;
21138;SDS011;10727;43.600;1.444;2023-03-01T03:01:30;13.73;;;9.18;;
21138;SDS011;10727;43.600;1.444;2023-03-01T03:04:41;15.35;;;10.43;;
21138;SDS011;10727;43.600;1.444;2023-03-01T03:07:46;17.77;;;9.55;;
21138;SDS011;10727;43.600;1.444;2023-03-01T03:10:51;13.75;;;10.30;;
21138;SDS011;10727;43.600;1.444;2023-03-01T03:13:57;13.77;;;10.40;;
21138;SDS011;10727;43.600;1.444;2023-03-01T03:17:03;12.52;;;9.32;;
21138;SDS011;10727;43.600;1.444;2023-03-01T03:20:10;13.15;;;9.13;;
21138;SDS011;10727;43.600;1.444;2023-03-01T03:23:15;14.65;;;9.63;;
21138;SDS011;10727;43.600;1.444;2023-03-01T03:26:20;13.32;;;10.13;;
21138;SDS011;10727;43.600;1.444;2023-03-01T03:29:25;13.25;;;10.18;;
21138;SDS011;10727;43.600;1.444;2023-03-01T03:32:32;17.10;;;10.60;;
21138;SDS011;10727;43.600;1.444;2023-03-01T03:35:40;14.10;;;10.73;;
21138;SDS011;10727;43.600;1.444;2023-03-01T03:38:45;15.85;;;10.45;;
21138;SDS011;10727;43.600;1.444;2023-03-01T03:41:51;14.15;;;10.15;;
21138;SDS011;10727;43.600;1.444;2023-03-01T03:44:56;13.82;;;9.95;;
21138;SDS011;10727;43.600;1.444;2023-03-01T03:48:04;14.00;;;10.30;;
21138;SDS011;10727;43.600;1.444;2023-03-01T03:51:10;14.25;;;9.85;;
21138;SDS011;10727;43.600;1.444;2023-03-01T03:54:15;14.32;;;9.63;;
21138;SDS011;10727;43.600;1.444;2023-03-01T03:57:20;13.43;;;9.57;;
21138;SDS011;10727;43.600;1.444;2023-03-01T04:00:25;13.63;;;9.68;;
21138;SDS011;10727;43.600;1.444;2023-03-01T04:03:32;14.57;;;10.27;;
21138;SDS011;10727;43.600;1.444;2023-03-01T04:06:38;12.60;;;9.52;;
21138;SDS011;10727;43.600;1.444;2023-03-01T04:09:43;12.95;;;9.80;;
21138;SDS011;10727;43.600;1.444;2023-03-01T04:12:48;15.25;;;10.07;;
21138;SDS011;10727;43.600;1.444;2023-03-01T04:15:53;14.13;;;9.38;;
21138;SDS011;10727;43.600;1.444;2023-03-01T04:19:00;12.27;;;9.40;;
21138;SDS011;10727;43.600;1.444;2023-03-01T04:22:06;13.60;;;9.27;;
21138;SDS011;10727;43.600;1.444;2023-03-01T04:25:12;15.50;;;9.52;;
21138;SDS011;10727;43.600;1.444;2023-03-01T04:28:18;14.02;;;9.93;;
21138;SDS011;10727;43.600;1.444;2023-03-01T04:31:23;13.10;;;9.60;;
21138;SDS011;10727;43.600;1.444;2023-03-01T04:34:30;13.20;;;9.23;;
21138;SDS011;10727;43.600;1.444;2023-03-01T04:37:35;15.13;;;9.70;;
21138;SDS011;10727;43.600;1.444;2023-03-01T04:40:40;14.20;;;9.82;;
21138;SDS011;10727;43.600;1.444;2023-03-01T04:43:46;13.18;;;9.15;;
21138;SDS011;10727;43.600;1.444;2023-03-01T04:46:52;14.77;;;9.45;;
21138;SDS011;10727;43.600;1.444;2023-03-01T04:49:58;13.52;;;9.50;;
21138;SDS011;10727;43.600;1.444;2023-03-01T04:53:03;15.35;;;9.43;;
21138;SDS011;10727;43.600;1.444;2023-03-01T04:56:08;15.10;;;9.88;;
21138;SDS011;10727;43.600;1.444;2023-03-01T04:59:13;14.32;;;9.43;;
21138;SDS011;10727;43.600;1.444;2023-03-01T05:02:18;15.15;;;10.18;;
21138;SDS011;10727;43.600;1.444;2023-03-01T05:05:26;12.73;;;8.88;;
21138;SDS011;10727;43.600;1.444;2023-03-01T05:08:31;13.32;;;9.52;;
21138;SDS011;10727;43.600;1.444;2023-03-01T05:11:37;13.07;;;9.88;;
21138;SDS011;10727;43.600;1.444;2023-03-01T05:14:42;12.55;;;9.15;;
21138;SDS011;10727;43.600;1.444;2023-03-01T05:17:47;13.90;;;9.50;;
21138;SDS011;10727;43.600;1.444;2023-03-01T05:20:54;13.85;;;9.48;;
21138;SDS011;10727;43.600;1.444;2023-03-01T05:24:01;14.20;;;10.05;;
21138;SDS011;10727;43.600;1.444;2023-03-01T05:27:06;11.50;;;8.90;;
21138;SDS011;10727;43.600;1.444;2023-03-01T05:30:12;13.00;;;9.30;;
21138;SDS011;10727;43.600;1.444;2023-03-01T05:33:17;14.30;;;9.25;;
21138;SDS011;10727;43.600;1.444;2023-03-01T05:36:26;14.23;;;9.07;;
21138;SDS011;10727;43.600;1.444;2023-03-01T05:39:30;13.10;;;9.05;;
21138;SDS011;10727;43.600;1.444;2023-03-01T05:42:36;12.13;;;8.95;;
21138;SDS011;10727;43.600;1.444;2023-03-01T05:45:41;13.93;;;9.13;;
21138;SDS011;10727;43.600;1.444;2023-03-01T05:48:46;12.35;;;8.98;;
21138;SDS011;10727;43.600;1.444;2023-03-01T05:51:53;12.70;;;8.25;;
21138;SDS011;10727;43.600;1.444;2023-03-01T05:54:58;17.98;;;8.70;;
21138;SDS011;10727;43.600;1.444;2023-03-01T05:58:04;14.15;;;8.90;;
21138;SDS011;10727;43.600;1.444;2023-03-01T06:01:10;16.02;;;9.50;;
21138;SDS011;10727;43.600;1.444;2023-03-01T06:04:16;13.20;;;9.45;;
21138;SDS011;10727;43.600;1.444;2023-03-01T06:07:23;10.85;;;8.77;;
21138;SDS011;10727;43.600;1.444;2023-03-01T06:10:28;13.43;;;8.88;;
21138;SDS011;10727;43.600;1.444;2023-03-01T06:13:33;12.48;;;8.80;;
21138;SDS011;10727;43.600;1.444;2023-03-01T06:16:38;15.20;;;9.40;;
21138;SDS011;10727;43.600;1.444;2023-03-01T06:19:43;14.35;;;9.40;;
21138;SDS011;10727;43.600;1.444;2023-03-01T06:22:50;13.57;;;9.30;;
21138;SDS011;10727;43.600;1.444;2023-03-01T06:25:55;15.68;;;9.23;;
21138;SDS011;10727;43.600;1.444;2023-03-01T06:29:00;20.05;;;9.93;;
21138;SDS011;10727;43.600;1.444;2023-03-01T06:32:05;13.07;;;9.07;;
21138;SDS011;10727;43.600;1.444;2023-03-01T06:35:11;15.32;;;9.75;;
21138;SDS011;10727;43.600;1.444;2023-03-01T06:38:18;18.92;;;9.95;;
21138;SDS011;10727;43.600;1.444;2023-03-01T06:41:23;15.23;;;9.48;;
21138;SDS011;10727;43.600;1.444;2023-03-01T06:44:28;14.35;;;9.20;;
21138;SDS011;10727;43.600;1.444;2023-03-01T06:47:33;14.15;;;8.55;;
21138;SDS011;10727;43.600;1.444;2023-03-01T06:50:38;15.30;;;9.40;;
21138;SDS011;10727;43.600;1.444;2023-03-01T06:53:45;14.15;;;8.82;;
21138;SDS011;10727;43.600;1.444;2023-03-01T06:56:50;14.30;;;9.65;;
21138;SDS011;10727;43.600;1.444;2023-03-01T06:59:55;16.65;;;9.38;;
21138;SDS011;10727;43.600;1.444;2023-03-01T07:03:00;18.00;;;9.40;;
21138;SDS011;10727;43.600;1.444;2023-03-01T07:06:06;16.95;;;9.82;;
21138;SDS011;10727;43.600;1.444;2023-03-01T07:09:12;16.40;;;9.38;;
21138;SDS011;10727;43.600;1.444;2023-03-01T07:12:17;16.27;;;9.43;;
21138;SDS011;10727;43.600;1.444;2023-03-01T07:15:22;15.40;;;9.50;;
21138;SDS011;10727;43.600;1.444;2023-03-01T07:18:27;20.98;;;10.18;;
21138;SDS011;10727;43.600;1.444;2023-03-01T07:21:32;16.42;;;9.43;;
21138;SDS011;10727;43.600;1.444;2023-03-01T07:24:39;16.95;;;10.07;;
21138;SDS011;10727;43.600;1.444;2023-03-01T07:27:48;16.25;;;9.85;;
21138;SDS011;10727;43.600;1.444;2023-03-01T07:30:53;21.70;;;10.30;;
21138;SDS011;10727;43.600;1.444;2023-03-01T07:33:58;14.48;;;9.95;;
21138;SDS011;10727;43.600;1.444;2023-03-01T07:37:04;15.57;;;10.90;;
21138;SDS011;10727;43.600;1.444;2023-03-01T07:40:11;20.42;;;10.50;;
21138;SDS011;10727;43.600;1.444;2023-03-01T07:43:16;15.88;;;10.30;;
21138;SDS011;10727;43.600;1.444;2023-03-01T07:46:22;19.25;;;9.95;;
21138;SDS011;10727;43.600;1.444;2023-03-01T07:49:27;16.85;;;10.95;;
21138;SDS011;10727;43.600;1.444;2023-03-01T07:52:32;17.95;;;10.15;;
21138;SDS011;10727;43.600;1.444;2023-03-01T07:55:38;15.38;;;9.77;;
21138;SDS011;10727;43.600;1.444;2023-03-01T07:58:44;14.73;;;10.00;;
21138;SDS011;10727;43.600;1.444;2023-03-01T08:01:50;14.65;;;9.95;;
21138;SDS011;10727;43.600;1.444;2023-03-01T08:04:58;18.33;;;10.25;;
21138;SDS011;10727;43.600;1.444;2023-03-01T08:08:04;17.85;;;10.32;;
21138;SDS011;10727;43.600;1.444;2023-03-01T08:11:12;15.90;;;10.80;;
21138;SDS011;10727;43.600;1.444;2023-03-01T08:14:17;16.55;;;10.43;;
21138;SDS011;10727;43.600;1.444;2023-03-01T08:17:31;17.40;;;10.27;;
21138;SDS011;10727;43.600;1.444;2023-03-01T08:20:36;17.90;;;10.20;;
21138;SDS011;10727;43.600;1.444;2023-03-01T08:23:41;17.83;;;10.38;;
21138;SDS011;10727;43.600;1.444;2023-03-01T08:26:48;17.23;;;11.10;;
21138;SDS011;10727;43.600;1.444;2023-03-01T08:29:53;21.30;;;10.95;;
21138;SDS011;10727;43.600;1.444;2023-03-01T08:32:59;16.77;;;10.70;;
21138;SDS011;10727;43.600;1.444;2023-03-01T08:36:04;18.23;;;11.13;;
21138;SDS011;10727;43.600;1.444;2023-03-01T08:39:10;15.05;;;9.88;;
21138;SDS011;10727;43.600;1.444;2023-03-01T08:42:16;20.25;;;11.60;;
21138;SDS011;10727;43.600;1.444;2023-03-01T08:45:21;16.10;;;11.65;;
21138;SDS011;10727;43.600;1.444;2023-03-01T08:48:27;21.48;;;11.38;;
21138;SDS011;10727;43.600;1.444;2023-03-01T08:51:31;17.92;;;10.73;;
21138;SDS011;10727;43.600;1.444;2023-03-01T08:54:39;18.08;;;11.48;;
21138;SDS011;10727;43.600;1.444;2023-03-01T08:57:46;18.30;;;11.68;;
21138;SDS011;10727;43.600;1.444;2023-03-01T09:00:51;17.10;;;10.50;;
21138;SDS011;10727;43.600;1.444;2023-03-01T09:03:56;14.85;;;9.90;;
21138;SDS011;10727;43.600;1.444;2023-03-01T09:07:01;13.18;;;8.82;;
21138;SDS011;10727;43.600;1.444;2023-03-01T09:10:06;13.73;;;9.40;;
21138;SDS011;10727;43.600;1.444;2023-03-01T09:13:12;13.80;;;9.35;;
21138;SDS011;10727;43.600;1.444;2023-03-01T09:16:18;15.18;;;9.45;;
21138;SDS011;10727;43.600;1.444;2023-03-01T09:19:23;10.63;;;9.05;;
21138;SDS011;10727;43.600;1.444;2023-03-01T09:22:28;11.40;;;8.45;;
21138;SDS011;10727;43.600;1.444;2023-03-01T09:25:33;14.45;;;8.80;;
21138;SDS011;10727;43.600;1.444;2023-03-01T09:28:40;12.15;;;9.30;;
21138;SDS011;10727;43.600;1.444;2023-03-01T09:31:45;14.65;;;8.70;;
21138;SDS011;10727;43.600;1.444;2023-03-01T09:34:50;11.90;;;8.55;;
21138;SDS011;10727;43.600;1.444;2023-03-01T09:38:10;12.20;;;8.65;;
21138;SDS011;10727;43.600;1.444;2023-03-01T09:41:20;9.65;;;7.70;;
21138;SDS011;10727;43.600;1.444;2023-03-01T09:44:32;10.13;;;7.50;;
21138;SDS011;10727;43.600;1.444;2023-03-01T09:47:38;10.80;;;8.30;;
21138;SDS011;10727;43.600;1.444;2023-03-01T09:50:45;10.15;;;7.75;;
21138;SDS011;10727;43.600;1.444;2023-03-01T09:53:50;8.60;;;6.82;;
21138;SDS011;10727;43.600;1.444;2023-03-01T09:57:12;8.75;;;7.38;;
21138;SDS011;10727;43.600;1.444;2023-03-01T10:00:24;11.25;;;7.47;;
21138;SDS011;10727;43.600;1.444;2023-03-01T10:03:31;12.60;;;7.18;;
21138;SDS011;10727;43.600;1.444;2023-03-01T10:06:40;9.50;;;7.18;;
21138;SDS011;10727;43.600;1.444;2023-03-01T10:09:48;10.45;;;6.80;;
21138;SDS011;10727;43.600;1.444;2023-03-01T10:12:54;10.05;;;6.90;;
21138;SDS011;10727;43.600;1.444;2023-03-01T10:16:03;7.97;;;6.20;;
21138;SDS011;10727;43.600;1.444;2023-03-01T10:19:11;8.23;;;6.53;;
21138;SDS011;10727;43.600;1.444;2023-03-01T10:22:19;10.80;;;6.45;;
21138;SDS011;10727;43.600;1.444;2023-03-01T10:25:31;6.75;;;6.05;;
21138;SDS011;10727;43.600;1.444;2023-03-01T10:28:41;9.88;;;7.00;;
21138;SDS011;10727;43.600;1.444;2023-03-01T10:31:51;9.75;;;6.97;;
21138;SDS011;10727;43.600;1.444;2023-03-01T10:34:57;10.85;;;6.75;;
21138;SDS011;10727;43.600;1.444;2023-03-01T10:38:03;12.48;;;7.00;;
21138;SDS011;10727;43.600;1.444;2023-03-01T10:41:08;8.85;;;6.30;;
21138;SDS011;10727;43.600;1.444;2023-03-01T10:44:34;7.95;;;6.07;;
21138;SDS011;10727;43.600;1.444;2023-03-01T10:47:41;7.85;;;5.63;;
21138;SDS011;10727;43.600;1.444;2023-03-01T10:50:46;8.90;;;5.63;;
21138;SDS011;10727;43.600;1.444;2023-03-01T10:53:53;11.65;;;6.68;;
21138;SDS011;10727;43.600;1.444;2023-03-01T10:56:59;10.75;;;6.20;;
21138;SDS011;10727;43.600;1.444;2023-03-01T11:00:14;7.30;;;5.70;;
21138;SDS011;10727;43.600;1.444;2023-03-01T11:03:23;7.18;;;5.78;;
21138;SDS011;10727;43.600;1.444;2023-03-01T11:06:28;8.25;;;5.72;;
21138;SDS011;10727;43.600;1.444;2023-03-01T11:09:33;8.35;;;5.80;;
21138;SDS011;10727;43.600;1.444;2023-03-01T11:12:41;7.47;;;5.65;;
21138;SDS011;10727;43.600;1.444;2023-03-01T11:15:57;7.30;;;5.68;;
21138;SDS011;10727;43.600;1.444;2023-03-01T11:19:18;10.73;;;6.20;;
21138;SDS011;10727;43.600;1.444;2023-03-01T11:22:24;7.90;;;6.00;;
21138;SDS011;10727;43.600;1.444;2023-03-01T11:25:30;9.13;;;6.45;;
21138;SDS011;10727;43.600;1.444;2023-03-01T11:28:37;10.32;;;5.97;;
21138;SDS011;10727;43.600;1.444;2023-03-01T11:31:44;7.20;;;6.45;;
21138;SDS011;10727;43.600;1.444;2023-03-01T11:34:53;8.70;;;6.47;;
21138;SDS011;10727;43.600;1.444;2023-03-01T11:38:03;7.78;;;5.97;;
21138;SDS011;10727;43.600;1.444;2023-03-01T11:41:12;7.40;;;6.15;;
21138;SDS011;10727;43.600;1.444;2023-03-01T11:44:19;9.05;;;5.90;;
21138;SDS011;10727;43.600;1.444;2023-03-01T11:47:32;9.23;;;5.45;;
21138;SDS011;10727;43.600;1.444;2023-03-01T11:50:42;6.55;;;5.35;;
21138;SDS011;10727;43.600;1.444;2023-03-01T11:57:16;5.53;;;4.53;;
21138;SDS011;10727;43.600;1.444;2023-03-01T12:00:30;6.30;;;4.75;;
21138;SDS011;10727;43.600;1.444;2023-03-01T12:03:42;6.95;;;5.10;;
21138;SDS011;10727;43.600;1.444;2023-03-01T12:06:56;5.20;;;4.60;;
21138;SDS011;10727;43.600;1.444;2023-03-01T12:10:17;7.00;;;4.93;;
21138;SDS011;10727;43.600;1.444;2023-03-01T12:13:28;6.45;;;4.88;;
21138;SDS011;10727;43.600;1.444;2023-03-01T12:16:53;6.40;;;5.20;;
21138;SDS011;10727;43.600;1.444;2023-03-01T12:20:06;5.72;;;4.80;;
21138;SDS011;10727;43.600;1.444;2023-03-01T12:23:24;6.40;;;5.35;;
21138;SDS011;10727;43.600;1.444;2023-03-01T12:26:33;10.63;;;5.28;;
21138;SDS011;10727;43.600;1.444;2023-03-01T12:29:39;6.22;;;5.13;;
21138;SDS011;10727;43.600;1.444;2023-03-01T12:32:50;8.20;;;5.13;;
21138;SDS011;10727;43.600;1.444;2023-03-01T12:39:32;8.63;;;5.18;;
21138;SDS011;10727;43.600;1.444;2023-03-01T12:42:41;7.50;;;5.72;;
21138;SDS011;10727;43.600;1.444;2023-03-01T12:49:13;6.60;;;5.68;;
21138;SDS011;10727;43.600;1.444;2023-03-01T12:52:20;5.13;;;4.68;;
21138;SDS011;10727;43.600;1.444;2023-03-01T12:55:29;7.32;;;5.00;;
21138;SDS011;10727;43.600;1.444;2023-03-01T12:58:37;7.70;;;5.47;;
21138;SDS011;10727;43.600;1.444;2023-03-01T13:01:45;7.13;;;4.97;;
21138;SDS011;10727;43.600;1.444;2023-03-01T13:04:56;7.93;;;5.00;;
21138;SDS011;10727;43.600;1.444;2023-03-01T13:08:07;6.75;;;5.22;;
21138;SDS011;10727;43.600;1.444;2023-03-01T13:11:17;7.72;;;5.10;;
21138;SDS011;10727;43.600;1.444;2023-03-01T13:14:36;7.43;;;5.15;;
21138;SDS011;10727;43.600;1.444;2023-03-01T13:17:43;6.20;;;4.50;;
21138;SDS011;10727;43.600;1.444;2023-03-01T13:20:49;7.30;;;5.28;;
21138;SDS011;10727;43.600;1.444;2023-03-01T13:23:55;9.32;;;5.10;;
21138;SDS011;10727;43.600;1.444;2023-03-01T13:30:41;5.70;;;4.80;;
21138;SDS011;10727;43.600;1.444;2023-03-01T13:33:46;5.28;;;4.70;;
21138;SDS011;10727;43.600;1.444;2023-03-01T13:36:51;5.70;;;4.78;;
21138;SDS011;10727;43.600;1.444;2023-03-01T13:39:58;8.55;;;5.40;;
21138;SDS011;10727;43.600;1.444;2023-03-01T13:46:31;6.25;;;5.07;;
21138;SDS011;10727;43.600;1.444;2023-03-01T13:49:41;5.38;;;4.88;;
21138;SDS011;10727;43.600;1.444;2023-03-01T13:52:48;7.82;;;5.03;;
21138;SDS011;10727;43.600;1.444;2023-03-01T13:55:55;8.07;;;4.55;;
21138;SDS011;10727;43.600;1.444;2023-03-01T13:59:01;6.78;;;4.82;;
21138;SDS011;10727;43.600;1.444;2023-03-01T14:02:11;6.53;;;5.00;;
21138;SDS011;10727;43.600;1.444;2023-03-01T14:05:17;9.68;;;5.28;;
21138;SDS011;10727;43.600;1.444;2023-03-01T14:08:22;8.02;;;4.78;;
21138;SDS011;10727;43.600;1.444;2023-03-01T14:14:52;5.97;;;5.28;;
21138;SDS011;10727;43.600;1.444;2023-03-01T14:18:01;7.93;;;5.70;;
21138;SDS011;10727;43.600;1.444;2023-03-01T14:21:08;6.38;;;5.28;;
21138;SDS011;10727;43.600;1.444;2023-03-01T14:24:17;7.07;;;5.57;;
21138;SDS011;10727;43.600;1.444;2023-03-01T14:27:22;7.25;;;5.40;;
21138;SDS011;10727;43.600;1.444;2023-03-01T14:30:30;7.60;;;5.47;;
21138;SDS011;10727;43.600;1.444;2023-03-01T14:33:37;8.25;;;5.43;;
21138;SDS011;10727;43.600;1.444;2023-03-01T14:36:44;9.32;;;6.07;;
21138;SDS011;10727;43.600;1.444;2023-03-01T14:39:49;8.00;;;5.45;;
21138;SDS011;10727;43.600;1.444;2023-03-01T14:42:56;6.60;;;5.63;;
21138;SDS011;10727;43.600;1.444;2023-03-01T14:46:01;7.97;;;5.35;;
21138;SDS011;10727;43.600;1.444;2023-03-01T14:49:09;7.22;;;5.38;;
21138;SDS011;10727;43.600;1.444;2023-03-01T14:52:18;7.43;;;6.05;;
21138;SDS011;10727;43.600;1.444;2023-03-01T14:55:25;10.23;;;5.65;;
21138;SDS011;10727;43.600;1.444;2023-03-01T14:58:32;8.07;;;5.70;;
21138;SDS011;10727;43.600;1.444;2023-03-01T15:01:38;7.22;;;5.60;;
21138;SDS011;10727;43.600;1.444;2023-03-01T15:04:46;6.18;;;5.55;;
21138;SDS011;10727;43.600;1.444;2023-03-01T15:07:52;7.43;;;5.40;;
21138;SDS011;10727;43.600;1.444;2023-03-01T15:11:02;7.57;;;5.50;;
21138;SDS011;10727;43.600;1.444;2023-03-01T15:17:28;6.30;;;5.30;;
21138;SDS011;10727;43.600;1.444;2023-03-01T15:20:36;6.78;;;5.07;;
21138;SDS011;10727;43.600;1.444;2023-03-01T15:23:47;7.65;;;5.25;;
21138;SDS011;10727;43.600;1.444;2023-03-01T15:26:56;8.13;;;5.07;;
21138;SDS011;10727;43.600;1.444;2023-03-01T15:30:04;5.90;;;4.80;;
21138;SDS011;10727;43.600;1.444;2023-03-01T15:33:17;8.70;;;5.75;;
21138;SDS011;10727;43.600;1.444;2023-03-01T15:36:31;7.90;;;5.10;;
21138;SDS011;10727;43.600;1.444;2023-03-01T15:39:38;6.03;;;4.93;;
21138;SDS011;10727;43.600;1.444;2023-03-01T15:42:46;5.97;;;4.90;;
21138;SDS011;10727;43.600;1.444;2023-03-01T15:45:55;8.23;;;5.25;;
21138;SDS011;10727;43.600;1.444;2023-03-01T15:49:02;7.68;;;5.50;;
21138;SDS011;10727;43.600;1.444;2023-03-01T15:52:10;5.57;;;4.88;;
21138;SDS011;10727;43.600;1.444;2023-03-01T15:55:17;7.50;;;4.95;;
21138;SDS011;10727;43.600;1.444;2023-03-01T15:58:23;6.80;;;5.20;;
21138;SDS011;10727;43.600;1.444;2023-03-01T16:01:29;6.05;;;4.93;;
21138;SDS011;10727;43.600;1.444;2023-03-01T16:04:37;7.07;;;5.45;;
21138;SDS011;10727;43.600;1.444;2023-03-01T16:07:43;7.47;;;5.00;;
21138;SDS011;10727;43.600;1.444;2023-03-01T16:10:48;7.57;;;5.25;;
21138;SDS011;10727;43.600;1.444;2023-03-01T16:13:54;5.80;;;5.20;;
21138;SDS011;10727;43.600;1.444;2023-03-01T16:16:59;9.02;;;5.22;;
21138;SDS011;10727;43.600;1.444;2023-03-01T16:20:04;6.13;;;5.22;;
21138;SDS011;10727;43.600;1.444;2023-03-01T16:23:11;8.18;;;5.35;;
21138;SDS011;10727;43.600;1.444;2023-03-01T16:26:17;6.72;;;5.40;;
21138;SDS011;10727;43.600;1.444;2023-03-01T16:29:22;6.68;;;5.53;;
21138;SDS011;10727;43.600;1.444;2023-03-01T16:32:27;5.93;;;5.18;;
21138;SDS011;10727;43.600;1.444;2023-03-01T16:35:32;6.60;;;5.35;;
21138;SDS011;10727;43.600;1.444;2023-03-01T16:38:39;12.18;;;5.63;;
21138;SDS011;10727;43.600;1.444;2023-03-01T16:41:44;7.53;;;5.10;;
21138;SDS011;10727;43.600;1.444;2023-03-01T16:44:51;6.07;;;5.40;;
21138;SDS011;10727;43.600;1.444;2023-03-01T16:47:59;6.30;;;5.13;;
21138;SDS011;10727;43.600;1.444;2023-03-01T16:51:04;6.10;;;5.50;;
21138;SDS011;10727;43.600;1.444;2023-03-01T16:54:12;7.35;;;5.75;;
21138;SDS011;10727;43.600;1.444;2023-03-01T16:57:17;6.43;;;5.72;;
21138;SDS011;10727;43.600;1.444;2023-03-01T17:00:22;7.03;;;5.30;;
21138;SDS011;10727;43.600;1.444;2023-03-01T17:03:27;7.97;;;6.07;;
21138;SDS011;10727;43.600;1.444;2023-03-01T17:06:32;6.68;;;5.80;;
21138;SDS011;10727;43.600;1.444;2023-03-01T17:09:38;7.85;;;5.50;;
21138;SDS011;10727;43.600;1.444;2023-03-01T17:12:43;6.30;;;5.47;;
21138;SDS011;10727;43.600;1.444;2023-03-01T17:15:48;7.53;;;5.85;;
21138;SDS011;10727;43.600;1.444;2023-03-01T17:18:53;9.85;;;6.50;;
21138;SDS011;10727;43.600;1.444;2023-03-01T17:21:58;9.65;;;6.45;;
21138;SDS011;10727;43.600;1.444;2023-03-01T17:25:06;9.57;;;6.63;;
21138;SDS011;10727;43.600;1.444;2023-03-01T17:28:12;7.50;;;5.90;;
21138;SDS011;10727;43.600;1.444;2023-03-01T17:31:17;8.63;;;6.05;;
21138;SDS011;10727;43.600;1.444;2023-03-01T17:34:30;10.13;;;6.43;;
21138;SDS011;10727;43.600;1.444;2023-03-01T17:37:35;8.75;;;6.32;;
21138;SDS011;10727;43.600;1.444;2023-03-01T17:40:43;9.77;;;6.50;;
21138;SDS011;10727;43.600;1.444;2023-03-01T17:43:49;8.07;;;5.70;;
21138;SDS011;10727;43.600;1.444;2023-03-01T17:46:54;8.20;;;6.20;;
21138;SDS011;10727;43.600;1.444;2023-03-01T17:50:00;8.38;;;6.18;;
21138;SDS011;10727;43.600;1.444;2023-03-01T17:53:06;7.25;;;5.85;;
21138;SDS011;10727;43.600;1.444;2023-03-01T17:56:13;10.27;;;5.90;;
21138;SDS011;10727;43.600;1.444;2023-03-01T17:59:19;6.55;;;5.50;;
21138;SDS011;10727;43.600;1.444;2023-03-01T18:02:24;8.25;;;6.47;;
21138;SDS011;10727;43.600;1.444;2023-03-01T18:05:31;10.85;;;6.65;;
21138;SDS011;10727;43.600;1.444;2023-03-01T18:08:36;8.15;;;6.35;;
21138;SDS011;10727;43.600;1.444;2023-03-01T18:11:42;10.63;;;7.13;;
21138;SDS011;10727;43.600;1.444;2023-03-01T18:14:47;11.20;;;6.85;;
21138;SDS011;10727;43.600;1.444;2023-03-01T18:17:55;8.70;;;6.80;;
21138;SDS011;10727;43.600;1.444;2023-03-01T18:21:01;12.13;;;6.60;;
21138;SDS011;10727;43.600;1.444;2023-03-01T18:24:07;8.43;;;6.63;;
21138;SDS011;10727;43.600;1.444;2023-03-01T18:27:14;9.98;;;6.88;;
21138;SDS011;10727;43.600;1.444;2023-03-01T18:30:19;8.32;;;6.70;;
21138;SDS011;10727;43.600;1.444;2023-03-01T18:33:24;9.98;;;7.40;;
21138;SDS011;10727;43.600;1.444;2023-03-01T18:36:30;10.35;;;7.68;;
21138;SDS011;10727;43.600;1.444;2023-03-01T18:39:35;10.10;;;7.72;;
21138;SDS011;10727;43.600;1.444;2023-03-01T18:42:42;10.77;;;7.93;;
21138;SDS011;10727;43.600;1.444;2023-03-01T18:45:47;9.63;;;7.53;;
21138;SDS011;10727;43.600;1.444;2023-03-01T18:48:52;13.90;;;8.38;;
21138;SDS011;10727;43.600;1.444;2023-03-01T18:51:57;12.48;;;8.60;;
21138;SDS011;10727;43.600;1.444;2023-03-01T18:55:03;14.63;;;8.65;;
21138;SDS011;10727;43.600;1.444;2023-03-01T18:58:10;10.80;;;8.40;;
21138;SDS011;10727;43.600;1.444;2023-03-01T19:01:16;10.80;;;8.57;;